createdAt,value
2023-01-05T00:00:26.217Z,9.20
2023-01-05T00:05:28.074Z,9.75
2023-01-05T00:10:48.675Z,8.82
2023-01-05T00:16:09.211Z,8.70
2023-01-05T00:21:34.313Z,8.60
2023-01-05T00:26:36.160Z,8.75
2023-01-05T00:31:38.034Z,9.07
2023-01-05T00:36:41.214Z,8.10
2023-01-05T00:41:43.647Z,8.82
2023-01-05T00:46:45.753Z,9.05
2023-01-05T00:51:47.985Z,10.02
2023-01-05T00:56:49.978Z,9.40
2023-01-05T01:01:54.563Z,8.93
2023-01-05T01:06:56.521Z,8.25
2023-01-05T01:11:58.642Z,8.02
2023-01-05T01:17:00.537Z,8.82
2023-01-05T01:22:02.511Z,8.05
2023-01-05T01:27:04.447Z,8.50
2023-01-05T01:32:06.462Z,7.88
2023-01-05T01:37:08.431Z,7.40
2023-01-05T01:42:19.071Z,8.23
2023-01-05T01:47:59.024Z,6.50
2023-01-05T01:53:09.123Z,6.70
2023-01-05T01:58:15.717Z,7.03
2023-01-05T02:03:17.910Z,6.72
2023-01-05T02:08:25.541Z,6.47
2023-01-05T02:13:42.586Z,6.97
2023-01-05T02:19:21.581Z,6.07
2023-01-05T02:25:14.922Z,7.03
2023-01-05T02:30:39.369Z,5.13
2023-01-05T02:36:13.778Z,4.68
2023-01-05T02:46:23.076Z,8.20
2023-01-05T02:51:31.734Z,4.22
2023-01-05T02:56:38.369Z,4.68
2023-01-05T03:01:45.987Z,4.60
2023-01-05T03:06:56.374Z,4.18
2023-01-05T03:12:21.870Z,4.40
2023-01-05T03:17:35.008Z,4.00
2023-01-05T03:22:56.659Z,4.25
2023-01-05T03:28:18.750Z,3.13
2023-01-05T03:34:12.481Z,3.20
2023-01-05T03:39:16.267Z,2.85
2023-01-05T03:44:22.071Z,2.90
2023-01-05T03:49:24.096Z,3.40
2023-01-05T03:54:26.599Z,3.47
2023-01-05T03:59:28.635Z,3.65
2023-01-05T04:04:30.644Z,3.50
2023-01-05T04:09:35.129Z,4.20
2023-01-05T04:14:37.701Z,5.45
2023-01-05T04:19:40.068Z,4.00
2023-01-05T04:24:43.202Z,2.97
2023-01-05T04:29:45.395Z,2.70
2023-01-05T04:34:48.358Z,2.53
2023-01-05T04:39:50.719Z,2.03
2023-01-05T04:44:52.755Z,2.50
2023-01-05T04:49:56.150Z,2.00
2023-01-05T04:54:58.331Z,2.20
2023-01-05T05:00:02.540Z,2.35
2023-01-05T05:05:06.510Z,2.03
2023-01-05T05:10:10.281Z,2.13
2023-01-05T05:15:15.435Z,2.33
2023-01-05T05:20:21.330Z,1.95
2023-01-05T05:25:24.232Z,2.50
2023-01-05T05:30:26.350Z,4.80
2023-01-05T05:35:28.220Z,2.40
2023-01-05T05:40:30.124Z,2.28
2023-01-05T05:45:31.994Z,2.03
2023-01-05T05:50:33.888Z,1.20
2023-01-05T05:55:40.955Z,1.40
2023-01-05T06:00:43.116Z,2.00
2023-01-05T06:05:45.484Z,1.30
2023-01-05T06:10:49.616Z,2.20
2023-01-05T06:15:51.839Z,1.80
2023-01-05T06:21:01.205Z,1.98
2023-01-05T06:26:04.100Z,2.28
2023-01-05T06:31:06.306Z,2.13
2023-01-05T06:36:08.766Z,2.10
2023-01-05T06:41:10.690Z,2.28
2023-01-05T06:46:12.620Z,2.72
2023-01-05T06:51:14.538Z,2.58
2023-01-05T06:56:16.582Z,2.78
2023-01-05T07:01:18.626Z,2.83
2023-01-05T07:06:20.595Z,2.85
2023-01-05T07:11:23.099Z,2.53
2023-01-05T07:16:25.084Z,2.40
2023-01-05T07:21:27.013Z,2.45
2023-01-05T07:26:28.880Z,2.55
2023-01-05T07:31:30.775Z,2.20
2023-01-05T07:36:34.008Z,1.98
2023-01-05T07:41:36.102Z,4.00
2023-01-05T07:46:38.397Z,2.67
2023-01-05T07:51:40.259Z,1.70
2023-01-05T07:56:42.344Z,5.65
2023-01-05T08:01:44.334Z,2.20
2023-01-05T08:06:46.250Z,1.55
2023-01-05T08:11:48.201Z,3.28
2023-01-05T08:16:50.600Z,2.28
2023-01-05T08:21:52.478Z,2.00
2023-01-05T08:26:54.410Z,2.05
2023-01-05T08:31:56.480Z,1.65
2023-01-05T08:36:58.375Z,2.25
2023-01-05T08:42:02.707Z,1.80
2023-01-05T08:47:05.017Z,2.30
2023-01-05T08:52:08.275Z,2.92
2023-01-05T08:57:10.463Z,2.60
2023-01-05T09:02:12.762Z,2.90
2023-01-05T09:07:14.829Z,2.38
2023-01-05T09:12:17.056Z,2.63
2023-01-05T09:17:19.081Z,2.95
2023-01-05T09:22:21.629Z,2.60
2023-01-05T09:27:23.523Z,2.50
2023-01-05T09:32:25.486Z,2.60
2023-01-05T09:37:28.815Z,2.25
2023-01-05T09:42:32.388Z,2.50
2023-01-05T09:47:39.773Z,2.80
2023-01-05T09:52:41.737Z,3.00
2023-01-05T09:58:10.486Z,3.42
2023-01-05T10:03:53.766Z,3.08
2023-01-05T10:08:48.302Z,3.33
2023-01-05T10:14:00.801Z,3.08
2023-01-05T10:19:02.843Z,2.80
2023-01-05T10:24:08.012Z,2.80
2023-01-05T10:29:15.751Z,2.92
2023-01-05T10:34:22.460Z,2.85
2023-01-05T10:39:36.524Z,2.70
2023-01-05T10:45:02.451Z,3.90
2023-01-05T10:50:40.088Z,3.63
2023-01-05T10:55:45.005Z,3.67
2023-01-05T11:00:47.714Z,3.45
2023-01-05T11:05:49.645Z,3.42
2023-01-05T11:11:03.344Z,3.88
2023-01-05T11:16:17.416Z,3.40
2023-01-05T11:21:46.985Z,3.30
2023-01-05T11:26:51.245Z,3.25
2023-01-05T11:31:55.580Z,3.10
2023-01-05T11:37:08.492Z,3.40
2023-01-05T11:42:25.397Z,3.10
2023-01-05T11:47:37.754Z,3.50
2023-01-05T11:52:46.845Z,3.40
2023-01-05T11:57:55.803Z,3.08
2023-01-05T12:03:54.188Z,2.70
2023-01-05T12:09:12.336Z,3.10
2023-01-05T12:14:24.716Z,3.28
2023-01-05T12:19:51.751Z,3.15
2023-01-05T12:25:09.156Z,3.97
2023-01-05T12:36:51.919Z,3.38
2023-01-05T12:42:38.745Z,3.33
2023-01-05T12:48:18.705Z,3.13
2023-01-05T12:53:35.616Z,2.92
2023-01-05T12:58:49.127Z,2.80
2023-01-05T13:04:04.809Z,3.10
2023-01-05T13:09:18.884Z,2.97
2023-01-05T13:14:29.456Z,3.05
2023-01-05T13:19:36.591Z,2.58
2023-01-05T13:25:03.713Z,2.75
2023-01-05T13:30:07.761Z,2.92
2023-01-05T13:35:12.411Z,2.47
2023-01-05T13:40:35.115Z,2.40
2023-01-05T13:46:14.234Z,2.83
2023-01-05T13:51:31.829Z,2.70
2023-01-05T13:56:36.960Z,2.60
2023-01-05T14:01:43.176Z,2.60
2023-01-05T14:06:48.439Z,2.42
2023-01-05T14:12:08.715Z,2.70
2023-01-05T14:17:11.347Z,9.80
2023-01-05T14:22:19.292Z,5.40
2023-01-05T14:27:22.553Z,3.72
2023-01-05T14:32:29.254Z,8.02
2023-01-05T14:37:53.521Z,5.93
2023-01-05T14:42:55.867Z,4.00
2023-01-05T14:48:04.863Z,5.15
2023-01-05T14:53:06.718Z,5.60
2023-01-05T14:58:14.988Z,8.73
2023-01-05T15:03:37.967Z,5.68
2023-01-05T15:08:52.583Z,5.80
2023-01-05T15:14:22.294Z,5.90
2023-01-05T15:19:45.463Z,4.00
2023-01-05T15:24:56.653Z,15.27
2023-01-05T15:30:30.383Z,4.40
2023-01-05T15:35:44.223Z,4.03
2023-01-05T15:45:51.518Z,4.47
2023-01-05T15:50:56.389Z,14.05
2023-01-05T15:55:59.535Z,15.77
2023-01-05T16:01:12.435Z,15.93
2023-01-05T16:06:26.461Z,5.40
2023-01-05T16:11:33.840Z,5.65
2023-01-05T16:16:52.652Z,13.32
2023-01-05T16:22:11.360Z,4.72
2023-01-05T16:27:15.259Z,9.35
2023-01-05T16:32:34.469Z,4.18
2023-01-05T16:37:36.371Z,5.40
2023-01-05T16:42:50.360Z,3.00
2023-01-05T16:47:53.370Z,2.50
2023-01-05T16:52:57.499Z,2.60
2023-01-05T16:58:01.041Z,2.65
2023-01-05T17:03:30.190Z,2.63
2023-01-05T17:08:37.696Z,2.17
2023-01-05T17:13:47.938Z,2.33
2023-01-05T17:18:50.085Z,1.70
2023-01-05T17:23:57.992Z,1.90
2023-01-05T17:39:06.089Z,2.08
2023-01-05T17:44:08.021Z,2.30
2023-01-05T17:49:14.760Z,1.73
2023-01-05T17:54:16.665Z,2.10
2023-01-05T17:59:19.846Z,2.30
2023-01-05T18:04:22.547Z,2.42
2023-01-05T18:09:24.592Z,1.92
2023-01-05T18:14:27.053Z,2.33
2023-01-05T18:19:31.475Z,3.30
2023-01-05T18:24:34.414Z,2.60
2023-01-05T18:29:37.929Z,2.80
2023-01-05T18:34:40.032Z,2.45
2023-01-05T18:39:43.539Z,2.28
2023-01-05T18:44:45.543Z,2.30
2023-01-05T18:49:47.465Z,2.28
2023-01-05T18:54:49.430Z,2.42
2023-01-05T18:59:51.900Z,2.40
2023-01-05T19:04:54.195Z,2.60
2023-01-05T19:09:56.082Z,2.97
2023-01-05T19:14:58.277Z,4.30
2023-01-05T19:20:00.341Z,3.00
2023-01-05T19:25:02.716Z,3.33
2023-01-05T19:30:05.008Z,4.10
2023-01-05T19:35:07.380Z,4.15
2023-01-05T19:40:10.633Z,3.85
2023-01-05T19:45:12.639Z,3.35
2023-01-05T19:50:15.568Z,3.50
2023-01-05T19:55:17.428Z,3.55
2023-01-05T20:00:19.384Z,3.10
2023-01-05T20:05:21.515Z,2.65
2023-01-05T20:10:23.356Z,2.53
2023-01-05T20:15:25.430Z,2.92
2023-01-05T20:20:27.411Z,2.17
2023-01-05T20:25:29.362Z,2.00
2023-01-05T20:30:34.299Z,2.15
2023-01-05T20:35:40.281Z,2.17
2023-01-05T20:40:42.558Z,2.90
2023-01-05T20:45:44.434Z,2.92
2023-01-05T20:50:46.334Z,2.70
2023-01-05T20:55:51.734Z,3.13
2023-01-05T21:01:10.105Z,2.38
2023-01-05T21:06:16.060Z,2.28
2023-01-05T21:11:22.809Z,2.40
2023-01-05T21:16:46.773Z,2.97
2023-01-05T21:21:51.759Z,15.02
2023-01-05T21:26:54.375Z,2.78
2023-01-05T21:31:56.504Z,2.70
2023-01-05T21:36:58.507Z,2.50
2023-01-05T21:42:18.888Z,2.40
2023-01-05T21:47:20.874Z,2.60
2023-01-05T21:52:41.249Z,2.78
2023-01-05T21:57:43.138Z,3.20
2023-01-05T22:02:45.145Z,2.65
2023-01-05T22:07:47.340Z,2.55
2023-01-05T22:12:49.374Z,3.40
2023-01-05T22:17:51.517Z,2.65
2023-01-05T22:22:53.792Z,3.05
2023-01-05T22:27:55.659Z,3.05
2023-01-05T22:32:58.235Z,2.65
2023-01-05T22:38:00.125Z,2.90
2023-01-05T22:43:02.015Z,3.10
2023-01-05T22:48:04.103Z,2.60
2023-01-05T22:53:06.078Z,2.45
2023-01-05T22:58:07.992Z,3.47
2023-01-05T23:03:10.439Z,3.47
2023-01-05T23:08:13.131Z,2.97
2023-01-05T23:13:15.044Z,3.88
2023-01-05T23:18:17.111Z,4.20
2023-01-05T23:23:18.958Z,4.07
2023-01-05T23:28:23.545Z,4.45
2023-01-05T23:33:29.210Z,3.72
2023-01-05T23:38:31.975Z,5.45
2023-01-05T23:43:36.095Z,4.10
2023-01-05T23:48:38.992Z,3.38
2023-01-05T23:53:49.232Z,3.70
2023-01-05T23:58:57.389Z,4.38
